Time;durP1;ratioP1;P1;durP2;ratioP2;P2;SDS_P1;SDS_P2;PMS_P1;PMS_P2;Temp;Humidity;BMP_temperature;BMP_pressure;BME280_temperature;BME280_humidity;BME280_pressure;Samples;Min_cycle;Max_cycle;Signal;HPM_P1;HPM_P2
2022/03/17 00:01:21;;;;;;;51.80;33.50;;;;;;;;;;4999988;28;20146;-55
2022/03/17 00:03:47;;;;;;;61.88;39.22;;;;;;;;;;5007356;28;20144;-55
2022/03/17 00:06:13;;;;;;;61.22;37.63;;;;;;;;;;5010590;28;20045;-54
2022/03/17 00:08:39;;;;;;;53.50;37.70;;;;;;;;;;5010240;28;20126;-55
2022/03/17 00:11:06;;;;;;;41.17;29.27;;;;;;;;;;5010447;28;20034;-55
2022/03/17 00:13:32;;;;;;;54.17;36.45;;;;;;;;;;5009969;28;20018;-55
2022/03/17 00:15:58;;;;;;;60.08;37.20;;;;;;;;;;5001446;28;20113;-54
2022/03/17 00:18:24;;;;;;;52.20;34.38;;;;;;;;;;4996054;28;20026;-54
2022/03/17 00:20:50;;;;;;;42.85;30.50;;;;;;;;;;4990528;28;20041;-55
2022/03/17 00:23:16;;;;;;;39.22;28.48;;;;;;;;;;4990357;28;20038;-56
2022/03/17 00:25:42;;;;;;;40.97;26.90;;;;;;;;;;4990485;28;20105;-54
2022/03/17 00:28:08;;;;;;;45.53;29.10;;;;;;;;;;4990032;28;20022;-55
2022/03/17 00:30:35;;;;;;;37.00;26.33;;;;;;;;;;4990425;28;20046;-56
2022/03/17 00:33:01;;;;;;;41.47;27.23;;;;;;;;;;4989194;28;20042;-55
2022/03/17 00:35:36;;;;;;;38.97;25.23;;;;;;;;;;4990574;28;20560;-55
2022/03/17 00:38:08;;;;;;;36.40;25.63;;;;;;;;;;5009926;28;20026;-55
2022/03/17 00:40:39;;;;;;;39.13;25.40;;;231.30;2252.80;;;;;;5011615;28;20084;-55
2022/03/17 00:43:06;;;;;;;34.70;22.95;;;231.20;2252.80;;;;;;5002580;28;20015;-54
2022/03/17 00:45:32;;;;;;;33.83;24.63;;;231.20;2252.80;;;;;;4998204;28;20022;-54
2022/03/17 00:47:58;;;;;;;42.25;26.77;;;231.10;2252.80;;;;;;5002995;28;20026;-55
2022/03/17 00:50:24;;;;;;;33.00;24.50;;;231.00;2252.80;;;;;;5000028;28;20030;-54
2022/03/17 00:52:50;;;;;;;33.72;23.13;;;231.00;2252.80;;;;;;5000706;28;20548;-54
2022/03/17 00:55:17;;;;;;;36.75;25.27;;;231.10;2252.80;;;;;;5001537;28;20018;-55
2022/03/17 00:57:42;;;;;;;34.65;25.23;;;230.90;2252.80;;;;;;5011018;28;20389;-54
2022/03/17 01:00:14;;;;;;;33.33;24.02;;;231.10;2252.80;;;;;;5009273;28;20044;-55
2022/03/17 01:02:43;;;;;;;36.63;23.48;;;231.20;2252.80;;;;;;5010696;28;20060;-55
2022/03/17 01:05:10;;;;;;;29.50;22.15;;;231.20;2252.80;;;;;;5004814;28;20045;-54
2022/03/17 01:07:37;;;;;;;32.00;24.55;;;231.30;2252.80;;;;;;4998875;28;20472;-57
2022/03/17 01:10:07;;;;;;;34.13;25.77;;;231.30;2252.80;;;;;;4995752;28;20416;-55
2022/03/17 01:12:33;;;;;;;32.58;24.35;;;256.00;2252.80;;;;;;4991434;28;20026;-57
2022/03/17 01:15:00;;;;;;;32.65;22.77;;;231.20;2252.80;;;;;;4991163;28;20495;-54
2022/03/17 01:17:26;;;;;;;32.15;22.98;;;231.20;2252.80;;;;;;4993757;28;20037;-55
2022/03/17 01:19:52;;;;;;;32.33;22.48;;;231.00;2252.80;;;;;;5008410;28;20099;-55
2022/03/17 01:22:18;;;;;;;35.40;23.38;;;231.20;2252.80;;;;;;5010557;28;20046;-55
2022/03/17 01:24:46;;;;;;;30.15;23.13;;;231.10;2252.80;;;;;;5010764;28;20544;-54
2022/03/17 01:27:12;;;;;;;35.17;23.67;;;231.20;2252.80;;;;;;5010471;28;20447;-56
2022/03/17 01:29:40;;;;;;;33.83;24.33;;;231.10;2252.80;;;;;;5010577;28;20057;-55
2022/03/17 01:32:07;;;;;;;33.92;22.98;;;231.20;2252.80;;;;;;5010606;28;20038;-55
2022/03/17 01:34:33;;;;;;;32.47;21.63;;;231.00;2252.80;;;;;;5010732;28;20065;-56
2022/03/17 01:36:58;;;;;;;44.22;37.40;;;231.00;2252.80;;;;;;5010461;28;20061;-54
2022/03/17 01:39:24;;;;;;;36.85;25.75;;;231.10;2252.80;;;;;;5010396;28;20358;-54
2022/03/17 01:41:50;;;;;;;32.70;23.05;;;231.20;2252.80;;;;;;5010316;28;20433;-54
2022/03/17 01:44:16;;;;;;;34.90;25.02;;;231.10;2252.80;;;;;;5010394;28;20079;-54
2022/03/17 01:49:26;;;;;;;32.35;22.73;;;230.90;2252.80;;;;;;5010224;28;20033;-55
2022/03/17 01:51:52;;;;;;;34.35;23.88;;;231.00;2252.80;;;;;;5010449;28;20022;-55
2022/03/17 01:54:19;;;;;;;34.42;24.48;;;231.10;2252.80;;;;;;5010106;28;20030;-55
2022/03/17 01:56:46;;;;;;;39.10;27.30;;;231.20;2252.80;;;;;;5010218;28;20026;-55
2022/03/17 01:59:12;;;;;;;43.83;26.02;;;231.10;2252.80;;;;;;5010302;28;20060;-55
2022/03/17 02:01:38;;;;;;;50.65;33.80;;;231.20;2252.80;;;;;;5010214;28;20066;-55
2022/03/17 02:04:06;;;;;;;46.58;32.22;;;231.20;2252.80;;;;;;5014774;28;20045;-54
2022/03/17 02:06:32;;;;;;;43.75;32.30;;;231.10;2252.80;;;;;;5014378;28;20037;-54
2022/03/17 02:08:58;;;;;;;43.58;32.63;;;231.00;2252.80;;;;;;5014034;28;20022;-55
2022/03/17 02:14:08;;;;;;;37.17;25.90;;;230.90;2252.80;;;;;;5014346;28;20092;-54
2022/03/17 02:16:34;;;;;;;36.63;26.20;;;231.00;2252.80;;;;;;5014323;28;20021;-55
2022/03/17 02:19:00;;;;;;;33.85;24.30;;;231.10;2252.80;;;;;;5013870;28;20469;-55
2022/03/17 02:21:25;;;;;;;30.80;22.38;;;231.00;2252.80;;;;;;5013782;28;20038;-55
2022/03/17 02:26:39;;;;;;;31.80;22.60;;;230.70;2252.80;;;;;;5014151;28;20929;-54
2022/03/17 02:29:05;;;;;;;33.40;22.50;;;230.60;2252.80;;;;;;5013917;28;20025;-55
2022/03/17 02:31:31;;;;;;;34.83;23.30;;;230.60;2252.80;;;;;;5013645;28;20029;-55
2022/03/17 02:33:57;;;;;;;35.42;23.05;;;230.50;2252.80;;;;;;5013596;28;20115;-55
2022/03/17 02:36:24;;;;;;;35.53;23.75;;;230.60;2252.80;;;;;;5013862;28;20061;-55
2022/03/17 02:38:50;;;;;;;29.45;21.60;;;230.50;2252.80;;;;;;5013618;28;20025;-54
2022/03/17 02:41:22;;;;;;;35.25;25.35;;;230.60;2252.80;;;;;;5013647;28;20033;-55
2022/03/17 02:43:54;;;;;;;31.52;23.05;;;230.70;2252.80;;;;;;5013592;28;20543;-55
2022/03/17 02:46:21;;;;;;;32.58;22.75;;;230.60;2252.80;;;;;;5013422;28;20026;-54
2022/03/17 02:48:47;;;;;;;33.45;23.42;;;230.40;2252.80;;;;;;5013353;28;20029;-55
2022/03/17 02:51:13;;;;;;;33.33;24.88;;;230.50;2252.80;;;;;;5013545;28;20542;-55
2022/03/17 02:53:38;;;;;;;37.83;25.25;;;230.40;2252.80;;;;;;5013350;28;20026;-54
2022/03/17 02:56:04;;;;;;;37.25;25.38;;;230.50;2252.80;;;;;;5013679;28;20037;-56
2022/03/17 02:58:33;;;;;;;37.70;24.60;;;230.50;2252.80;;;;;;5013210;28;20026;-55
2022/03/17 03:00:58;;;;;;;40.83;27.80;;;230.50;2252.80;;;;;;5012993;28;20507;-55
2022/03/17 03:03:24;;;;;;;41.22;27.77;;;230.50;2252.80;;;;;;5013150;28;20030;-54
2022/03/17 03:05:50;;;;;;;38.22;26.60;;;230.70;2252.80;;;;;;5012992;28;20029;-55
2022/03/17 03:08:17;;;;;;;39.15;27.17;;;230.70;2252.80;;;;;;5013239;28;20054;-55
2022/03/17 03:10:44;;;;;;;36.00;25.55;;;230.70;2252.80;;;;;;5013261;28;20072;-55
2022/03/17 03:13:10;;;;;;;34.92;24.60;;;230.60;2252.80;;;;;;5012957;28;20033;-55
2022/03/17 03:15:37;;;;;;;32.17;25.13;;;230.70;2252.80;;;;;;5013106;28;20092;-55
2022/03/17 03:18:03;;;;;;;37.55;24.75;;;230.80;2252.80;;;;;;5013117;28;20503;-54
2022/03/17 03:20:29;;;;;;;38.47;24.92;;;230.90;2252.80;;;;;;5012684;28;20066;-55
2022/03/17 03:22:55;;;;;;;35.28;26.38;;;231.00;2252.80;;;;;;5012752;28;20077;-55
2022/03/17 03:25:21;;;;;;;38.58;25.95;;;230.90;2252.80;;;;;;5012845;28;20076;-55
2022/03/17 03:27:47;;;;;;;38.00;26.08;;;230.90;2252.80;;;;;;5012695;28;20049;-55
2022/03/17 03:30:14;;;;;;;34.30;24.60;;;231.00;2252.80;;;;;;4994690;28;20384;-55
2022/03/17 03:32:44;;;;;;;36.05;26.25;;;231.10;2252.80;;;;;;5012359;28;20030;-54
2022/03/17 03:37:56;;;;;;;34.13;24.35;;;231.00;2252.80;;;;;;5013028;28;20924;-55
2022/03/17 03:40:22;;;;;;;38.88;25.63;;;231.10;2252.80;;;;;;5012574;28;20048;-55
2022/03/17 03:42:48;;;;;;;44.25;27.23;;;231.10;2252.80;;;;;;5012289;28;20036;-55
2022/03/17 03:45:14;;;;;;;35.47;25.17;;;231.00;2252.80;;;;;;5012438;28;20026;-55
2022/03/17 03:47:40;;;;;;;41.15;27.20;;;231.00;2252.80;;;;;;5012188;28;20029;-54
2022/03/17 03:50:07;;;;;;;38.75;25.75;;;231.10;2252.80;;;;;;5012367;28;20108;-55
2022/03/17 03:52:33;;;;;;;37.50;25.15;;;231.10;2252.80;;;;;;5012583;28;20116;-55
2022/03/17 03:54:59;;;;;;;40.42;26.73;;;231.00;2252.80;;;;;;5012082;28;20479;-54
2022/03/17 03:57:24;;;;;;;40.65;27.08;;;231.00;2252.80;;;;;;5012330;28;20069;-55
2022/03/17 03:59:50;;;;;;;39.13;27.60;;;231.10;2252.80;;;;;;5011903;28;20033;-55
2022/03/17 04:02:16;;;;;;;42.38;27.95;;;231.00;2252.80;;;;;;5012061;28;20626;-54
2022/03/17 04:04:42;;;;;;;41.45;26.55;;;231.00;2252.80;;;;;;5012020;28;20030;-55
2022/03/17 04:07:10;;;;;;;41.85;31.42;;;231.00;2252.80;;;;;;5011963;28;20026;-55
2022/03/17 04:09:39;;;;;;;48.58;36.67;;;230.90;2252.80;;;;;;5012184;28;20105;-55
2022/03/17 04:12:07;;;;;;;42.78;29.48;;;231.00;2252.80;;;;;;5011909;28;20033;-54
2022/03/17 04:14:33;;;;;;;40.47;30.08;;;231.00;2252.80;;;;;;5012169;28;20076;-55
2022/03/17 04:16:59;;;;;;;50.72;36.30;;;231.00;2252.80;;;;;;5011591;28;20022;-55
2022/03/17 04:19:25;;;;;;;71.05;46.17;;;231.00;2252.80;;;;;;5011783;28;20029;-55
2022/03/17 04:21:51;;;;;;;62.28;45.63;;;231.00;2252.80;;;;;;5011435;28;20042;-54
2022/03/17 04:24:18;;;;;;;64.50;46.67;;;230.90;2252.80;;;;;;5011288;28;20109;-55
2022/03/17 04:26:44;;;;;;;44.60;33.75;;;230.90;2252.80;;;;;;5011593;28;20041;-54
2022/03/17 04:29:11;;;;;;;51.28;38.47;;;230.90;2252.80;;;;;;5011465;28;20022;-54
2022/03/17 04:31:38;;;;;;;62.22;43.70;;;230.90;2252.80;;;;;;5011518;28;20499;-56
2022/03/17 04:34:04;;;;;;;78.10;49.15;;;230.90;2252.80;;;;;;5011657;28;20077;-55
2022/03/17 04:36:31;;;;;;;73.30;49.25;;;230.90;2252.80;;;;;;5011573;28;20030;-55
2022/03/17 04:38:57;;;;;;;77.07;46.67;;;230.90;2252.80;;;;;;5011472;28;20026;-55
2022/03/17 04:41:23;;;;;;;84.00;51.72;;;230.90;2252.80;;;;;;5011679;28;20326;-55
2022/03/17 04:43:49;;;;;;;69.25;45.83;;;230.90;2252.80;;;;;;5011141;28;20053;-55
2022/03/17 04:46:16;;;;;;;68.60;43.65;;;231.00;2252.80;;;;;;5011435;28;20065;-55
2022/03/17 04:48:42;;;;;;;69.07;44.40;;;231.00;2252.80;;;;;;5011286;28;20030;-54
2022/03/17 04:51:07;;;;;;;83.20;59.75;;;230.90;2252.80;;;;;;5011390;28;20116;-55
2022/03/17 04:53:33;;;;;;;70.30;44.10;;;230.90;2252.80;;;;;;5011457;28;20022;-54
2022/03/17 04:56:10;;;;;;;58.53;42.42;;;230.90;2252.80;;;;;;5010986;28;20022;-55
2022/03/17 04:58:38;;;;;;;61.17;42.05;;;230.90;2252.80;;;;;;5011246;28;20029;-55
2022/03/17 05:01:06;;;;;;;58.95;41.75;;;230.90;2252.80;;;;;;5011215;28;20053;-55
2022/03/17 05:03:32;;;;;;;71.13;46.92;;;231.00;2252.80;;;;;;5010991;28;20022;-55
2022/03/17 05:05:59;;;;;;;70.97;47.47;;;230.90;2252.80;;;;;;5010832;28;20061;-54
2022/03/17 05:08:24;;;;;;;73.50;46.90;;;231.00;2252.80;;;;;;4993190;28;20392;-55
2022/03/17 05:10:52;;;;;;;73.32;47.30;;;230.90;2252.80;;;;;;5010838;28;20105;-54
2022/03/17 05:13:25;;;;;;;72.15;46.70;;;230.90;2252.80;;;;;;5010848;28;20057;-55
2022/03/17 05:15:51;;;;;;;71.80;46.08;;;230.90;2252.80;;;;;;5010604;28;20033;-55
2022/03/17 05:18:18;;;;;;;91.25;56.80;;;230.90;2252.80;;;;;;5010715;28;20034;-55
2022/03/17 05:20:44;;;;;;;83.18;54.20;;;230.80;2252.80;;;;;;5010952;28;20046;-54
2022/03/17 05:23:15;;;;;;;91.72;56.83;;;230.80;2252.80;;;;;;4992832;28;20050;-55
2022/03/17 05:25:42;;;;;;;67.57;42.33;;;230.80;2252.80;;;;;;5010618;28;20038;-55
2022/03/17 05:28:09;;;;;;;55.17;38.95;;;230.90;2252.80;;;;;;5010295;28;20511;-55
2022/03/17 05:30:37;;;;;;;50.38;35.03;;;230.70;2252.80;;;;;;5010771;28;20034;-55
2022/03/17 05:33:03;;;;;;;52.10;37.15;;;230.60;2252.80;;;;;;5010711;28;20037;-53
2022/03/17 05:35:30;;;;;;;50.17;35.88;;;230.70;2252.80;;;;;;5010354;28;20037;-55
2022/03/17 05:37:58;;;;;;;50.95;36.15;;;230.80;2252.80;;;;;;5009636;28;20026;-55
2022/03/17 05:40:24;;;;;;;51.17;36.35;;;230.80;2252.80;;;;;;5010396;28;20140;-54
2022/03/17 05:42:55;;;;;;;57.47;38.20;;;230.80;2252.80;;;;;;5010221;28;20056;-55
2022/03/17 05:45:22;;;;;;;65.10;46.05;;;230.90;2252.80;;;;;;5009688;28;20033;-53
2022/03/17 05:47:53;;;;;;;59.67;39.95;;;231.00;2252.80;;;;;;5004990;28;20026;-55
2022/03/17 05:50:22;;;;;;;57.30;41.63;;;231.00;2252.80;;;;;;5010118;28;20021;-55
2022/03/17 05:52:49;;;;;;;56.85;39.42;;;231.10;2252.80;;;;;;5010261;28;20022;-55
2022/03/17 05:55:16;;;;;;;64.07;41.30;;;231.20;2252.80;;;;;;5010356;28;20499;-55
2022/03/17 05:57:45;;;;;;;64.32;40.83;;;231.20;2252.80;;;;;;5010176;28;20029;-55
2022/03/17 06:00:13;;;;;;;55.25;40.80;;;231.30;2252.80;;;;;;5010018;28;20037;-55
2022/03/17 06:02:39;;;;;;;75.90;49.13;;;231.30;2252.80;;;;;;5010076;28;20117;-54
2022/03/17 06:05:07;;;;;;;75.63;49.00;;;231.30;2252.80;;;;;;5010497;28;20033;-54
2022/03/17 06:07:50;;;;;;;99.82;65.70;;;256.00;2252.80;;;;;;5010307;28;20030;-54
2022/03/17 06:10:17;;;;;;;93.22;64.70;;;281.60;2278.40;;;;;;5006821;28;20041;-54
2022/03/17 06:12:44;;;;;;;100.75;63.33;;;231.20;2252.80;;;;;;5009932;28;20369;-55
2022/03/17 06:15:11;;;;;;;100.00;66.25;;;231.10;2252.80;;;;;;5010053;28;20033;-55
2022/03/17 06:17:48;;;;;;;77.78;51.17;;;231.20;2252.80;;;;;;5010028;28;20030;-55
2022/03/17 06:20:18;;;;;;;92.28;64.32;;;231.20;2252.80;;;;;;5009991;28;20042;-55
2022/03/17 06:22:47;;;;;;;56.15;38.15;;;256.00;2252.80;;;;;;5009993;28;20076;-55
2022/03/17 06:25:16;;;;;;;64.00;44.75;;;256.00;2252.80;;;;;;5010122;28;20026;-55
2022/03/17 06:27:43;;;;;;;76.05;52.83;;;256.00;2252.80;;;;;;5010045;28;20018;-54
2022/03/17 06:30:12;;;;;;;62.90;43.85;;;256.10;2252.80;;;;;;5009833;28;20026;-54
2022/03/17 06:32:39;;;;;;;63.25;43.97;;;256.00;2252.80;;;;;;5009579;28;20461;-55
2022/03/17 06:35:17;;;;;;;65.40;46.80;;;256.20;2252.80;;;;;;5010010;28;20120;-54
2022/03/17 06:37:45;;;;;;;76.68;54.65;;;256.00;2252.80;;;;;;5009965;28;20357;-55
2022/03/17 06:40:12;;;;;;;74.28;50.80;;;256.10;2252.80;;;;;;5009628;28;20034;-54
2022/03/17 06:42:38;;;;;;;84.82;57.50;;;256.20;2252.80;;;;;;5009790;28;20026;-55
2022/03/17 06:45:04;;;;;;;79.28;58.50;;;256.30;2252.80;;;;;;5009944;28;20105;-55
2022/03/17 06:47:29;;;;;;;80.30;53.63;;;256.20;2252.80;;;;;;5009868;28;20092;-54
2022/03/17 06:49:55;;;;;;;68.18;47.45;;;256.20;2252.80;;;;;;5013524;28;20026;-54
2022/03/17 06:52:22;;;;;;;66.85;45.80;;;256.30;2252.80;;;;;;5013304;28;20424;-54
2022/03/17 06:54:48;;;;;;;69.18;45.63;;;256.70;2252.80;;;;;;5013139;28;20476;-55
2022/03/17 06:57:21;;;;;;;67.07;47.80;;;256.70;2252.80;;;;;;5013358;28;20026;-55
2022/03/17 06:59:48;;;;;;;80.20;52.58;;;256.90;2252.80;;;;;;5012952;28;20018;-55
2022/03/17 07:02:14;;;;;;;70.38;49.22;;;256.80;2252.80;;;;;;5013330;28;20096;-55
2022/03/17 07:04:40;;;;;;;40.80;31.27;;;256.80;2252.80;;;;;;5013017;28;20030;-54
2022/03/17 07:07:07;;;;;;;43.65;29.23;;;256.90;2252.80;;;;;;5013397;28;20040;-54
2022/03/17 07:09:33;;;;;;;36.60;27.33;;;256.90;2252.80;;;;;;5013286;28;20108;-55
2022/03/17 07:11:59;;;;;;;41.30;30.33;;;256.90;2252.80;;;;;;5013045;28;20025;-54
2022/03/17 07:14:25;;;;;;;47.88;38.40;;;281.60;2278.40;;;;;;5013239;28;20022;-54
2022/03/17 07:16:51;;;;;;;65.95;43.63;;;281.80;2278.40;;;;;;5012974;28;20515;-55
2022/03/17 07:19:16;;;;;;;77.40;49.85;;;282.00;2278.40;;;;;;5012753;28;20026;-56
2022/03/17 07:21:42;;;;;;;81.78;54.22;;;281.90;2278.40;;;;;;5012779;28;20050;-55
2022/03/17 07:24:09;;;;;;;85.85;59.55;;;282.10;2278.40;;;;;;5012593;28;20022;-55
2022/03/17 07:26:35;;;;;;;83.65;58.22;;;282.20;2278.40;;;;;;5013110;28;20380;-54
2022/03/17 07:29:02;;;;;;;74.40;49.05;;;282.00;2278.40;;;;;;5012676;28;20022;-55
2022/03/17 07:31:28;;;;;;;67.70;45.78;;;282.00;2278.40;;;;;;5012442;28;20465;-55
2022/03/17 07:33:54;;;;;;;62.88;46.42;;;281.80;2278.40;;;;;;5012771;28;20057;-55
2022/03/17 07:36:20;;;;;;;67.82;44.30;;;282.00;2278.40;;;;;;5012390;28;20057;-55
2022/03/17 07:38:46;;;;;;;73.88;55.30;;;282.10;2278.40;;;;;;5012442;28;20033;-56
2022/03/17 07:41:13;;;;;;;78.55;51.80;;;256.80;2252.80;;;;;;5012427;28;20443;-55
2022/03/17 07:43:41;;;;;;;75.50;52.60;;;281.70;2278.40;;;;;;5012230;28;20022;-55
2022/03/17 07:46:07;;;;;;;93.22;65.03;;;256.80;2252.80;;;;;;5012410;28;20097;-55
2022/03/17 07:48:33;;;;;;;85.88;56.50;;;281.60;2278.40;;;;;;5012553;28;20022;-54
2022/03/17 07:50:59;;;;;;;79.13;56.45;;;281.80;2278.40;;;;;;5012202;28;20022;-55
2022/03/17 07:53:25;;;;;;;63.75;42.25;;;281.70;2278.40;;;;;;5012270;28;20376;-55
2022/03/17 07:55:55;;;;;;;63.70;42.03;;;281.90;2278.40;;;;;;5012114;28;20372;-55
2022/03/17 07:58:24;;;;;;;71.10;50.33;;;282.00;2278.40;;;;;;5011998;28;20050;-55
2022/03/17 08:00:54;;;;;;;61.50;42.10;;;282.50;2278.40;;;;;;5011054;28;20072;-55
2022/03/17 08:03:21;;;;;;;86.03;52.47;;;307.20;2304.00;;;;;;5011789;28;20022;-55
2022/03/17 08:05:47;;;;;;;66.45;44.63;;;307.20;2304.00;;;;;;5011850;28;20061;-56
2022/03/17 08:08:17;;;;;;;57.88;44.20;;;282.20;2278.40;;;;;;5011976;28;20108;-55
2022/03/17 08:10:43;;;;;;;58.30;42.65;;;282.30;2278.40;;;;;;5011938;28;20033;-55
2022/03/17 08:13:09;;;;;;;56.92;39.20;;;308.10;2304.00;;;;;;5011856;28;20022;-55
2022/03/17 08:15:40;;;;;;;56.15;41.42;;;358.80;2176.00;;;;;;5011972;28;20030;-55
2022/03/17 08:18:07;;;;;;;60.95;48.05;;;384.90;1945.60;;;;;;5011981;28;20033;-53
2022/03/17 08:20:39;;;;;;;61.78;50.25;;;436.10;1740.80;;;;;;5011673;28;20034;-53
2022/03/17 08:23:06;;;;;;;61.70;49.47;;;410.20;1817.60;;;;;;5011719;28;20046;-53
2022/03/17 08:25:32;;;;;;;56.78;45.28;;;409.70;1868.80;;;;;;5011826;28;20034;-53
2022/03/17 08:28:02;;;;;;;59.90;45.47;;;384.60;1894.40;;;;;;5011310;28;20030;-53
2022/03/17 08:30:28;;;;;;;65.03;47.30;;;359.30;1945.60;;;;;;5011395;28;20061;-53
2022/03/17 08:32:54;;;;;;;65.93;49.85;;;359.10;1996.80;;;;;;5011480;28;20062;-52
2022/03/17 08:35:20;;;;;;;58.92;46.45;;;333.40;2124.80;;;;;;5011363;28;20077;-52
2022/03/17 08:37:46;;;;;;;54.90;38.45;;;332.80;2329.60;;;;;;5011361;28;20049;-58
2022/03/17 08:40:14;;;;;;;46.30;34.75;;;307.70;2304.00;;;;;;5011402;28;20052;-52
2022/03/17 08:42:42;;;;;;;54.15;40.72;;;307.70;2304.00;;;;;;5011414;28;20121;-52
2022/03/17 08:50:48;;;;;;;55.25;39.22;;;307.80;2304.00;;;;;;4950787;29;20135;-60
2022/03/17 08:53:14;;;;;;;57.88;42.80;;;282.30;2278.40;;;;;;4950813;29;20045;-53
2022/03/17 08:55:40;;;;;;;47.05;35.08;;;;;;;;;;4950558;29;20087;-57
2022/03/17 08:58:07;;;;;;;51.95;38.67;;;;;;;;;;4950634;29;20547;-53
2022/03/17 09:00:34;;;;;;;52.58;40.10;;;;;;;;;;4950749;29;20039;-53
2022/03/17 09:03:02;;;;;;;40.97;30.10;;;;;;;;;;4950393;29;20082;-52
2022/03/17 09:05:29;;;;;;;48.63;36.10;;;;;;;;;;4950437;29;20051;-53
2022/03/17 09:07:55;;;;;;;69.45;47.83;;;;;;;;;;4950582;29;20031;-52
2022/03/17 09:10:23;;;;;;;70.95;48.10;;;;;;;;;;4950256;28;20075;-53
2022/03/17 09:12:49;;;;;;;66.25;44.10;;;256.90;2252.80;;;;;;4947303;29;20407;-54
2022/03/17 09:15:14;;;;;;;62.88;39.10;;;256.80;2252.80;;;;;;4948606;29;20120;-55
2022/03/17 09:17:43;;;;;;;60.90;40.90;;;256.70;2252.80;;;;;;4948260;29;20071;-60
2022/03/17 09:20:15;;;;;;;63.47;42.58;;;;;;;;;;4948348;29;20126;-56
2022/03/17 09:22:41;;;;;;;67.00;43.70;;;;;;;;;;4948207;29;20137;-52
2022/03/17 09:25:08;;;;;;;65.75;44.50;;;;;;;;;;4995163;28;20056;-54
2022/03/17 09:27:34;;;;;;;50.42;34.60;;;;;;;;;;5009194;28;20384;-53
2022/03/17 09:30:00;;;;;;;49.05;34.00;;;;;;;;;;5008803;28;20419;-53
2022/03/17 09:32:26;;;;;;;52.42;36.83;;;;;;;;;;5009036;28;20072;-52
2022/03/17 09:34:52;;;;;;;77.55;47.38;;;;;;;;;;5009108;28;20089;-56
2022/03/17 09:37:19;;;;;;;64.07;40.28;;;;;;;;;;4990774;28;20033;-52
2022/03/17 09:39:45;;;;;;;60.70;39.50;;;;;;;;;;5011105;28;20026;-52
2022/03/17 09:42:18;;;;;;;49.30;32.53;;;;;;;;;;5010508;28;20061;-53
2022/03/17 09:44:46;;;;;;;48.30;34.85;;;;;;;;;;5010460;28;20061;-52
2022/03/17 09:47:13;;;;;;;67.22;40.97;;;;;;;;;;5010433;28;20484;-52
2022/03/17 09:49:38;;;;;;;71.80;42.22;;;256.20;2252.80;;;;;;5010400;28;20063;-53
2022/03/17 09:52:11;;;;;;;65.45;37.75;;;256.00;2252.80;;;;;;5010636;28;20033;-52
2022/03/17 09:54:37;;;;;;;84.32;49.25;;;256.30;2252.80;;;;;;5010334;28;20057;-53
2022/03/17 09:57:04;;;;;;;80.72;47.47;;;256.50;2252.80;;;;;;5010740;28;20172;-53
2022/03/17 09:59:30;;;;;;;54.42;37.40;;;256.80;2252.80;;;;;;5010109;28;20029;-53
2022/03/17 10:01:57;;;;;;;75.18;52.30;;;256.90;2252.80;;;;;;5010378;28;20550;-52
2022/03/17 10:04:23;;;;;;;69.38;47.45;;;256.80;2252.80;;;;;;5010309;28;20054;-53
2022/03/17 10:06:50;;;;;;;66.28;46.60;;;281.60;2278.40;;;;;;5010053;28;20026;-53
2022/03/17 10:09:16;;;;;;;83.85;56.88;;;256.90;2252.80;;;;;;5010396;28;20486;-53
2022/03/17 10:11:42;;;;;;;69.88;45.25;;;281.80;2278.40;;;;;;5010113;28;20036;-52
2022/03/17 10:14:09;;;;;;;63.38;42.85;;;281.90;2278.40;;;;;;5009832;28;20026;-52
2022/03/17 10:16:37;;;;;;;63.08;45.33;;;282.10;2278.40;;;;;;5010208;28;20464;-52
2022/03/17 10:19:06;;;;;;;59.30;40.22;;;282.20;2278.40;;;;;;5010415;28;20057;-53
2022/03/17 10:21:33;;;;;;;67.70;46.85;;;;;;;;;;5010039;28;20041;-53
2022/03/17 10:24:04;;;;;;;105.75;70.82;;;307.30;2304.00;;;;;;5012379;28;20034;-52
2022/03/17 10:26:51;;;;;;;55.58;36.78;;;307.50;2304.00;;;;;;5013745;28;20489;-52
2022/03/17 10:29:25;;;;;;;50.22;33.53;;;282.50;2278.40;;;;;;5013854;28;20021;-53
2022/03/17 10:32:04;;;;;;;99.88;85.40;;;307.80;2304.00;;;;;;5013495;28;20025;-52
2022/03/17 10:34:51;;;;;;;39.60;29.95;;;332.80;2329.60;;;;;;5013605;28;20491;-53
2022/03/17 10:37:23;;;;;;;95.32;71.95;;;307.80;2304.00;;;;;;5013525;28;20033;-54
2022/03/17 10:39:52;;;;;;;51.78;35.15;;;333.20;2329.60;;;;;;5013402;28;20026;-53
2022/03/17 10:42:24;;;;;;;51.72;37.97;;;358.50;2176.00;;;;;;5013438;28;20061;-53
2022/03/17 10:44:56;;;;;;;50.00;34.42;;;358.80;2073.60;;;;;;5013461;28;20105;-53
2022/03/17 10:47:42;;;;;;;43.55;31.13;;;358.70;2073.60;;;;;;5013635;28;20101;-52
2022/03/17 10:50:22;;;;;;;70.25;51.95;;;358.70;2048.00;;;;;;5013286;28;20033;-53
2022/03/17 10:52:57;;;;;;;51.15;38.20;;;359.30;2022.40;;;;;;5013310;28;20022;-53
2022/03/17 10:55:27;;;;;;;40.13;31.02;;;358.90;1996.80;;;;;;5013381;28;20045;-52
2022/03/17 10:57:56;;;;;;;56.65;43.55;;;359.00;1971.20;;;;;;5013046;28;20337;-52
2022/03/17 11:00:27;;;;;;;64.97;48.40;;;359.10;2022.40;;;;;;5013082;28;20026;-52
2022/03/17 11:02:57;;;;;;;55.60;36.95;;;358.80;2022.40;;;;;;5013147;28;20104;-52
2022/03/17 11:05:23;;;;;;;50.33;37.97;;;359.00;2073.60;;;;;;5013294;28;20076;-52
2022/03/17 11:07:49;;;;;;;53.30;37.33;;;308.10;2227.20;;;;;;5013192;28;20121;-53
2022/03/17 11:10:21;;;;;;;42.08;31.23;;;332.90;2252.80;;;;;;5013286;28;20440;-52
2022/03/17 11:12:50;;;;;;;53.97;39.08;;;308.10;2252.80;;;;;;5012803;28;20354;-53
2022/03/17 11:15:25;;;;;;;56.28;40.55;;;307.80;2304.00;;;;;;5012924;28;20108;-52
2022/03/17 11:17:51;;;;;;;57.53;39.28;;;307.40;2304.00;;;;;;5012771;28;20046;-52
2022/03/17 11:20:20;;;;;;;43.70;31.73;;;307.50;2304.00;;;;;;5012896;28;20051;-52
2022/03/17 11:23:09;;;;;;;50.95;36.28;;;307.60;2304.00;;;;;;5012732;28;20703;-52
2022/03/17 11:25:36;;;;;;;56.95;38.72;;;307.20;2304.00;;;;;;5013009;28;20061;-52
2022/03/17 11:28:04;;;;;;;53.28;38.13;;;282.50;2278.40;;;;;;5013012;28;20439;-52
2022/03/17 11:30:46;;;;;;;68.32;43.88;;;307.30;2304.00;;;;;;5012725;28;20033;-53
2022/03/17 11:33:30;;;;;;;76.13;51.88;;;307.40;2304.00;;;;;;4995204;28;20050;-61
2022/03/17 11:36:09;;;;;;;76.35;49.90;;;307.30;2304.00;;;;;;5011502;28;20030;-52
2022/03/17 11:38:36;;;;;;;70.03;47.55;;;307.30;2304.00;;;;;;5012813;28;20026;-52
2022/03/17 11:41:21;;;;;;;69.07;45.28;;;307.40;2304.00;;;;;;5012930;28;20114;-52
2022/03/17 11:43:47;;;;;;;74.05;50.25;;;307.20;2304.00;;;;;;5012297;28;20034;-53
2022/03/17 11:46:14;;;;;;;74.93;52.20;;;282.00;2278.40;;;;;;5012427;28;20101;-53
2022/03/17 11:48:41;;;;;;;102.35;63.28;;;282.50;2278.40;;;;;;5012388;28;20136;-52
2022/03/17 11:51:09;;;;;;;58.17;42.13;;;307.30;2304.00;;;;;;5012393;28;20057;-53
2022/03/17 11:54:04;;;;;;;66.60;44.95;;;307.20;2304.00;;;;;;5012680;28;20026;-52
2022/03/17 11:56:35;;;;;;;56.15;38.63;;;307.20;2304.00;;;;;;5003618;28;20064;-52
2022/03/17 11:59:01;;;;;;;71.13;47.65;;;307.30;2304.00;;;;;;5012137;28;20112;-55
2022/03/17 12:01:34;;;;;;;57.80;42.88;;;307.20;2304.00;;;;;;5012117;28;20663;-53
2022/03/17 12:04:04;;;;;;;61.88;42.72;;;282.50;2278.40;;;;;;4994456;28;20026;-52
2022/03/17 12:06:41;;;;;;;47.97;35.05;;;282.20;2278.40;;;;;;5011935;28;20105;-52
2022/03/17 12:09:11;;;;;;;55.90;40.08;;;282.50;2278.40;;;;;;5012108;28;20057;-52
2022/03/17 12:11:39;;;;;;;67.10;45.10;;;282.40;2278.40;;;;;;5010199;28;20045;-53
2022/03/17 12:14:17;;;;;;;79.07;55.38;;;282.50;2278.40;;;;;;5010345;28;20099;-53
2022/03/17 12:16:43;;;;;;;80.22;52.08;;;282.50;2278.40;;;;;;5010272;28;20108;-53
2022/03/17 12:19:08;;;;;;;75.45;48.33;;;307.20;2304.00;;;;;;5010251;28;20058;-53
2022/03/17 12:22:02;;;;;;;75.88;46.30;;;307.30;2304.00;;;;;;5010101;28;20092;-53
2022/03/17 12:24:49;;;;;;;61.67;43.88;;;307.20;2304.00;;;;;;5009542;28;20091;-54
2022/03/17 12:27:46;;;;;;;61.42;37.45;;;307.40;2304.00;;;;;;5010187;28;20399;-60
2022/03/17 12:30:17;;;;;;;61.90;44.30;;;307.40;2304.00;;;;;;4930007;29;20476;-55
2022/03/17 12:32:52;;;;;;;59.95;43.75;;;307.40;2304.00;;;;;;4930149;29;20044;-54
2022/03/17 12:35:20;;;;;;;55.70;38.00;;;307.50;2304.00;;;;;;4929900;29;20078;-57